Time;durP1;ratioP1;P1;durP2;ratioP2;P2;SDS_P1;SDS_P2;PMS_P1;PMS_P2;Temp;Humidity;BMP_temperature;BMP_pressure;BME280_temperature;BME280_humidity;BME280_pressure;Samples;Min_cycle;Max_cycle;Signal;HPM_P1;HPM_P2
2022/12/25 00:00:53;;;;;;;15.57;4.87;;;;;;;7.61;100.00;101452.09;5135958;27;20034;-38
2022/12/25 00:03:19;;;;;;;19.00;5.97;;;;;;;7.52;100.00;101429.91;5136933;27;20264;-38
2022/12/25 00:05:44;;;;;;;20.83;6.73;;;;;;;7.54;100.00;101422.47;5135965;27;20019;-38
2022/12/25 00:08:10;;;;;;;17.90;5.53;;;;;;;7.62;100.00;101433.09;5136866;27;20023;-38
2022/12/25 00:10:35;;;;;;;17.40;5.33;;;;;;;7.62;100.00;101434.94;5135832;27;20062;-38
2022/12/25 00:13:00;;;;;;;16.97;5.13;;;;;;;7.65;100.00;101431.84;5136226;27;20031;-38
2022/12/25 00:15:26;;;;;;;13.32;5.22;;;;;;;7.57;100.00;101423.94;5135843;27;20072;-38
2022/12/25 00:17:51;;;;;;;21.73;7.60;;;;;;;7.59;100.00;101425.41;5136861;27;20375;-38
2022/12/25 00:20:17;;;;;;;21.13;6.30;;;;;;;7.68;100.00;101439.53;5134127;27;20039;-38
2022/12/25 00:22:42;;;;;;;20.57;5.03;;;;;;;7.70;100.00;101434.78;5136508;27;20041;-38
2022/12/25 00:25:08;;;;;;;18.73;5.40;;;;;;;7.68;100.00;101437.69;5135502;27;20122;-38
2022/12/25 00:27:36;;;;;;;16.55;5.03;;;;;;;7.65;100.00;101421.09;5136623;27;20024;-38
2022/12/25 00:30:02;;;;;;;18.75;5.60;;;;;;;7.74;100.00;101438.75;5136114;27;20477;-38
2022/12/25 00:32:27;;;;;;;15.38;5.38;;;;;;;7.59;100.00;101408.41;5135706;27;20020;-38
2022/12/25 00:34:52;;;;;;;21.20;5.40;;;;;;;7.73;100.00;101429.84;5135437;27;20027;-38
2022/12/25 00:37:18;;;;;;;13.10;4.53;;;;;;;7.80;100.00;101435.25;5134906;27;20092;-38
2022/12/25 00:39:43;;;;;;;15.40;5.13;;;;;;;7.79;100.00;101428.22;5135409;27;20051;-38
2022/12/25 00:42:18;;;;;;;22.83;5.43;;;;;;;7.72;100.00;101417.41;5135550;27;20023;-38
2022/12/25 00:44:48;;;;;;;13.95;5.22;;;;;;;7.81;100.00;101430.69;5135152;27;20538;-38
2022/12/25 00:47:14;;;;;;;15.18;5.35;;;;;;;7.78;100.00;101420.34;5135888;27;20069;-38
2022/12/25 00:49:39;;;;;;;15.43;4.80;;;;;;;7.82;100.00;101417.06;5135388;27;20391;-38
2022/12/25 00:52:04;;;;;;;17.80;5.47;;;;;;;7.79;100.00;101412.06;5135378;27;20027;-38
2022/12/25 00:54:30;;;;;;;16.00;5.37;;;;;;;7.70;100.00;101403.31;5135567;27;20023;-38
2022/12/25 00:56:55;;;;;;;15.53;5.03;;;;;;;7.85;100.00;101421.19;5135234;27;20023;-38
2022/12/25 00:59:21;;;;;;;16.07;5.40;;;;;;;7.86;100.00;101418.31;5134829;27;20526;-38
2022/12/25 01:01:46;;;;;;;15.95;6.03;;;;;;;7.88;100.00;101418.94;5135470;27;20024;-38
2022/12/25 01:04:12;;;;;;;17.27;5.53;;;;;;;7.83;100.00;101409.81;5134864;27;20096;-38
2022/12/25 01:06:38;;;;;;;16.17;5.60;;;;;;;7.91;100.00;101415.88;5135083;27;20027;-38
2022/12/25 01:11:47;;;;;;;14.77;5.20;;;;;;;7.94;100.00;101420.00;5134998;27;20131;-38
2022/12/25 01:14:13;;;;;;;18.67;5.70;;;;;;;7.96;100.00;101416.09;5134844;27;20023;-38
2022/12/25 01:16:38;;;;;;;12.73;4.90;;;;;;;7.90;100.00;101400.72;5134810;27;20072;-38
2022/12/25 01:19:04;;;;;;;18.87;4.77;;;;;;;7.98;100.00;101415.88;5135468;27;20027;-38
2022/12/25 01:21:30;;;;;;;14.43;4.97;;;;;;;7.92;100.00;101400.53;5134722;27;20359;-38
2022/12/25 01:23:55;;;;;;;12.48;5.13;;;;;;;7.93;100.00;101392.25;5134951;27;20027;-38
2022/12/25 01:26:22;;;;;;;18.57;5.60;;;;;;;7.96;100.00;101410.72;5134600;27;20023;-38
2022/12/25 01:28:48;;;;;;;13.45;5.40;;;;;;;7.97;100.00;101419.63;5134585;27;20685;-38
2022/12/25 01:31:16;;;;;;;16.48;5.45;;;;;;;8.02;100.00;101432.50;5134485;27;20471;-38
2022/12/25 01:33:42;;;;;;;17.05;5.70;;;;;;;8.02;100.00;101443.25;5135112;27;20147;-38
2022/12/25 01:36:10;;;;;;;;;;;;;;;8.06;100.00;101439.16;5135497;27;20035;-38
2022/12/25 01:38:36;;;;;;;11.85;5.05;;;;;;;8.05;100.00;101438.28;5134368;27;19908;-38
2022/12/25 01:41:01;;;;;;;14.93;4.97;;;;;;;8.03;100.00;101439.53;5134963;27;20043;-38
2022/12/25 01:43:31;;;;;;;13.53;5.10;;;;;;;7.98;100.00;101429.34;5134701;27;20023;-38
2022/12/25 01:45:57;;;;;;;13.15;5.35;;;;;;;7.97;100.00;101425.00;5134445;27;20027;-38
2022/12/25 01:48:37;;;;;;;17.08;5.30;;;;;;;7.93;100.00;101408.41;5135131;27;20038;-38
2022/12/25 01:51:10;;;;;;;14.52;5.10;;;;;;;8.04;100.00;101435.78;5134792;27;20118;-38
2022/12/25 01:53:35;;;;;;;12.25;5.07;;;;;;;8.04;100.00;101441.19;5135117;27;20030;-38
2022/12/25 01:56:06;;;;;;;19.02;6.05;;;;;;;8.03;100.00;101445.75;5133966;27;20463;-38
2022/12/25 01:58:32;;;;;;;14.63;5.30;;;;;;;7.96;100.00;101432.25;5134449;27;20127;-38
2022/12/25 02:00:58;;;;;;;15.05;6.43;;;;;;;8.03;100.00;101444.91;5134325;27;20038;-38
2022/12/25 02:03:24;;;;;;;17.20;5.40;;;;;;;8.02;100.00;101444.09;5134384;27;20412;-38
2022/12/25 02:05:50;;;;;;;14.73;5.70;;;;;;;8.03;100.00;101448.44;5134079;27;20023;-38
2022/12/25 02:08:18;;;;;;;15.05;6.40;;;;;;;8.04;100.00;101444.72;5134466;27;20376;-37
2022/12/25 02:10:43;;;;;;;12.43;5.05;;;;;;;8.05;100.00;101448.22;5133592;27;20027;-37
2022/12/25 02:13:14;;;;;;;16.90;6.80;;;;;;;8.03;100.00;101443.06;5132865;27;20068;-37
2022/12/25 02:15:51;;;;;;;15.50;5.70;;;;;;;8.07;100.00;101446.19;5134460;27;20071;-37
2022/12/25 02:18:22;;;;;;;15.30;6.50;;;;;;;8.02;100.00;101437.88;5133936;27;20031;-37
2022/12/25 02:20:59;;;;;;;14.27;5.43;;;;;;;8.07;100.00;101456.97;5134432;27;20031;-37
2022/12/25 02:23:49;;;;;;;12.65;5.78;;;;;;;8.08;100.00;101454.06;5133834;28;20027;-37
2022/12/25 02:26:24;;;;;;;15.20;5.80;;;;;;;8.08;100.00;101459.44;5134021;27;20030;-37
2022/12/25 02:29:04;;;;;;;13.15;5.85;;;;;;;8.09;100.00;101455.72;5134026;27;20062;-37
2022/12/25 02:31:44;;;;;;;15.40;5.68;;;;;;;8.08;100.00;101447.84;5133418;28;20031;-37
2022/12/25 02:34:16;;;;;;;13.52;6.43;;;;;;;8.09;100.00;101454.88;5134227;27;20030;-38
2022/12/25 02:37:01;;;;;;;9.65;5.78;;;;;;;8.05;100.00;101440.16;5133383;27;20029;-37
2022/12/25 03:06:41;;;;;;;18.35;6.45;;;;;;;8.12;100.00;101449.09;5134154;28;20041;-37
2022/12/25 03:07:24;;;;;;;12.68;5.25;;;;;;;7.93;100.00;101389.56;5137622;27;20042;-37
2022/12/25 03:13:03;;;;;;;12.52;5.50;;;;;;;7.91;100.00;101372.78;5137274;27;20039;-38
2022/12/25 03:18:16;;;;;;;12.10;5.38;;;;;;;7.93;100.00;101359.09;5137757;27;20046;-38
2022/12/25 03:28:58;;;;;;;12.05;5.03;;;;;;;7.85;100.00;101346.63;5137024;27;20398;-38
2022/12/25 03:31:46;;;;;;;17.27;5.57;;;;;;;7.77;100.00;101337.91;5136623;27;20027;-38
2022/12/25 03:47:23;;;;;;;14.48;5.78;;;;;;;7.72;100.00;101349.28;5084597;28;20154;-38
2022/12/25 04:36:39;;;;;;;9.20;3.10;;;;;;;7.56;100.00;101336.13;5136195;27;20395;-38
2022/12/25 04:39:05;;;;;;;6.47;3.57;;;;;;;7.65;100.00;101341.16;5136071;27;20039;-38
2022/12/25 04:41:30;;;;;;;8.37;3.50;;;;;;;7.65;100.00;101340.31;5135945;27;20020;-38
2022/12/25 04:43:55;;;;;;;6.53;2.77;;;;;;;7.63;100.00;101347.78;5135525;27;20490;-39
2022/12/25 04:46:21;;;;;;;6.63;3.00;;;;;;;7.53;100.00;101332.00;5135384;27;20118;-38
2022/12/25 04:48:46;;;;;;;7.03;3.03;;;;;;;7.60;100.00;101348.16;5135962;27;20042;-38
2022/12/25 04:51:21;;;;;;;9.20;3.37;;;;;;;7.47;100.00;101314.78;5135338;27;20437;-38
2022/12/25 04:53:47;;;;;;;7.80;3.38;;;;;;;7.62;100.00;101344.25;5135644;27;20031;-38
2022/12/25 04:56:13;;;;;;;;;;;;;;;7.66;100.00;101341.97;5135640;27;20114;-38
2022/12/25 04:58:39;;;;;;;8.00;2.95;;;;;;;7.57;100.00;101335.97;5135728;27;19954;-38
2022/12/25 05:01:04;;;;;;;7.70;3.22;;;;;;;7.61;100.00;101339.91;5133560;27;20069;-38
2022/12/25 05:03:30;;;;;;;5.68;2.50;;;;;;;7.57;100.00;101338.66;5135500;27;20027;-38
2022/12/25 05:05:56;;;;;;;4.50;2.45;;;;;;;7.58;100.00;101340.31;5135110;27;20105;-38
2022/12/25 05:08:21;;;;;;;7.00;2.92;;;;;;;7.57;100.00;101333.25;5135144;27;20054;-38
2022/12/25 05:10:47;;;;;;;5.53;2.85;;;;;;;7.54;100.00;101339.03;5135055;27;20428;-38
2022/12/25 05:13:13;;;;;;;8.63;2.85;;;;;;;7.54;100.00;101332.81;5133728;27;20383;-38
2022/12/25 05:15:39;;;;;;;6.50;2.60;;;;;;;7.54;100.00;101332.81;5134913;27;20019;-38
2022/12/25 05:18:04;;;;;;;5.95;2.17;;;;;;;7.56;100.00;101330.75;5135399;27;20054;-38
2022/12/25 05:20:30;;;;;;;7.05;2.80;;;;;;;7.52;100.00;101324.13;5134462;27;20106;-38
2022/12/25 05:22:55;;;;;;;6.67;2.77;;;;;;;7.45;100.00;101300.69;5134589;27;20028;-38
2022/12/25 05:25:20;;;;;;;7.50;2.57;;;;;;;7.49;100.00;101320.78;5134687;27;20073;-38
2022/12/25 05:27:46;;;;;;;5.67;2.40;;;;;;;7.47;100.00;101313.97;5134679;27;20121;-38
2022/12/25 05:30:11;;;;;;;6.10;2.50;;;;;;;7.46;100.00;101307.72;5134280;27;20114;-38
2022/12/25 05:32:37;;;;;;;8.50;2.63;;;;;;;7.52;100.00;101302.59;5135057;27;20031;-38
2022/12/25 05:35:02;;;;;;;8.40;2.67;;;;;;;7.51;100.00;101295.53;5134546;27;20023;-38
2022/12/25 05:37:28;;;;;;;7.28;2.53;;;;;;;7.51;100.00;101285.59;5134814;27;20027;-38
2022/12/25 05:39:53;;;;;;;6.70;2.40;;;;;;;7.55;100.00;101292.25;5134504;27;20083;-38
2022/12/25 05:42:18;;;;;;;8.57;2.67;;;;;;;7.59;100.00;101292.69;5134739;27;20110;-38
2022/12/25 05:44:44;;;;;;;7.00;2.03;;;;;;;7.60;100.00;101287.09;5135142;27;20098;-38
2022/12/25 05:47:09;;;;;;;4.80;2.40;;;;;;;7.63;100.00;101288.56;5134368;27;20027;-38
2022/12/25 05:49:34;;;;;;;6.40;2.20;;;;;;;7.67;100.00;101301.44;5134323;27;20107;-38
2022/12/25 05:52:00;;;;;;;8.47;2.70;;;;;;;7.68;100.00;101297.69;5134351;27;20023;-38
2022/12/25 05:54:25;;;;;;;4.53;1.97;;;;;;;7.73;100.00;101313.25;5134294;27;20024;-38
2022/12/25 05:56:50;;;;;;;7.60;2.73;;;;;;;7.65;100.00;101281.94;5133985;27;20483;-38
2022/12/25 05:59:16;;;;;;;7.03;2.10;;;;;;;7.80;100.00;101299.81;5133829;27;20023;-38
2022/12/25 06:01:41;;;;;;;4.50;2.03;;;;;;;7.74;100.00;101287.97;5132368;27;20134;-38
2022/12/25 06:04:06;;;;;;;6.97;2.20;;;;;;;7.79;100.00;101284.69;5134430;27;20049;-38
2022/12/25 06:06:31;;;;;;;8.30;2.20;;;;;;;7.86;100.00;101285.56;5134109;27;20038;-36
2022/12/25 06:08:57;;;;;;;8.23;2.33;;;;;;;7.90;100.00;101278.72;5133072;27;20031;-37
2022/12/25 06:11:22;;;;;;;6.87;2.50;;;;;;;7.84;100.00;101266.88;5134096;27;20113;-37
2022/12/25 06:13:50;;;;;;;6.87;2.33;;;;;;;7.94;100.00;101286.19;5134553;27;20019;-37
2022/12/25 06:16:16;;;;;;;5.72;2.08;;;;;;;7.95;100.00;101284.31;5133883;27;20023;-37
2022/12/25 06:18:44;;;;;;;7.70;2.80;;;;;;;7.99;100.00;101286.41;5133915;27;20079;-37
2022/12/25 06:21:12;;;;;;;5.25;2.30;;;;;;;7.94;100.00;101269.19;5134379;27;20496;-37
2022/12/25 06:23:38;;;;;;;4.65;1.80;;;;;;;8.02;100.00;101265.50;5134634;27;20046;-37
2022/12/25 06:26:06;;;;;;;6.60;2.30;;;;;;;8.04;100.00;101260.72;5133751;27;20027;-37
2022/12/25 06:28:31;;;;;;;5.25;1.70;;;;;;;8.09;100.00;101250.16;5133596;27;20027;-37
2022/12/25 06:30:57;;;;;;;6.40;2.20;;;;;;;8.09;100.00;101253.69;5133541;27;20034;-37
2022/12/25 06:33:22;;;;;;;3.17;1.75;;;;;;;8.11;100.00;101253.50;5134139;27;20027;-37
2022/12/25 06:35:47;;;;;;;4.53;1.83;;;;;;;8.14;100.00;101253.91;5135325;27;20027;-38
2022/12/25 06:38:13;;;;;;;7.00;2.20;;;;;;;8.10;100.00;101235.66;5137767;27;20472;-37
2022/12/25 06:40:38;;;;;;;3.93;1.87;;;;;;;8.11;100.00;101234.66;5136205;27;20499;-37
2022/12/25 06:43:03;;;;;;;4.50;2.03;;;;;;;8.14;100.00;101226.97;5137675;27;20027;-37
2022/12/25 06:45:28;;;;;;;7.00;2.30;;;;;;;8.17;100.00;101225.75;5137826;27;20031;-38
2022/12/25 06:47:54;;;;;;;5.60;1.90;;;;;;;8.16;100.00;101218.69;5138181;27;20099;-37
2022/12/25 06:50:19;;;;;;;5.07;2.40;;;;;;;8.15;100.00;101227.78;5138074;27;20069;-37
2022/12/25 06:52:44;;;;;;;6.07;2.33;;;;;;;8.15;100.00;101227.78;5138009;27;20066;-37
2022/12/25 06:55:10;;;;;;;5.07;2.10;;;;;;;8.11;100.00;101210.41;5137488;27;20106;-37
2022/12/25 06:57:35;;;;;;;4.43;2.00;;;;;;;8.17;100.00;101204.19;5138421;27;20077;-37
2022/12/25 07:00:00;;;;;;;4.17;2.00;;;;;;;8.10;100.00;101171.88;5137778;27;20031;-37
2022/12/25 07:02:26;;;;;;;5.70;2.07;;;;;;;8.11;100.00;101176.22;5138250;27;20106;-37
2022/12/25 07:04:52;;;;;;;4.57;2.40;;;;;;;8.17;100.00;101193.41;5137870;27;20030;-37
2022/12/25 07:07:18;;;;;;;3.33;2.00;;;;;;;8.16;100.00;101194.44;5137906;27;20027;-37
2022/12/25 07:09:44;;;;;;;6.15;2.35;;;;;;;8.16;100.00;101191.75;5137631;27;20116;-37
2022/12/25 07:12:12;;;;;;;5.03;2.20;;;;;;;8.16;100.00;101192.59;5137506;27;20019;-37
2022/12/25 07:14:37;;;;;;;4.18;1.90;;;;;;;8.15;100.00;101207.09;5137939;27;20027;-37
2022/12/25 07:17:03;;;;;;;6.40;2.10;;;;;;;8.17;100.00;101217.66;5137679;27;20019;-37
2022/12/25 07:19:28;;;;;;;4.10;2.07;;;;;;;8.15;100.00;101209.78;5137621;27;20117;-37
2022/12/25 07:21:53;;;;;;;4.13;2.53;;;;;;;8.14;100.00;101218.88;5137558;27;20058;-37
2022/12/25 07:24:20;;;;;;;7.07;3.00;;;;;;;8.15;100.00;101228.66;5137094;27;20427;-37
2022/12/25 07:26:45;;;;;;;9.13;4.65;;;;;;;8.16;100.00;101237.56;5137720;27;20114;-38
2022/12/25 07:29:11;;;;;;;7.93;5.20;;;;;;;8.11;100.00;101227.41;5137083;27;20114;-38
2022/12/25 07:31:36;;;;;;;8.80;5.23;;;;;;;8.18;100.00;101240.84;5137197;27;20027;-37
2022/12/25 07:34:01;;;;;;;7.63;3.75;;;;;;;8.11;100.00;101231.97;5136910;27;20027;-37
2022/12/25 07:36:27;;;;;;;5.47;3.17;;;;;;;8.18;100.00;101238.16;5136579;27;20054;-38
2022/12/25 07:38:52;;;;;;;6.23;2.60;;;;;;;8.18;100.00;101243.56;5136944;27;20106;-37
2022/12/25 07:41:18;;;;;;;6.83;2.73;;;;;;;8.17;100.00;101240.03;5136469;27;20039;-38
2022/12/25 07:43:43;;;;;;;6.73;2.80;;;;;;;8.10;100.00;101211.41;5137263;27;20024;-38
2022/12/25 07:46:09;;;;;;;5.87;2.80;;;;;;;8.14;100.00;101208.09;5136178;27;20261;-37
2022/12/25 07:48:35;;;;;;;6.80;2.83;;;;;;;8.12;100.00;101206.66;5136860;27;20023;-38
2022/12/25 07:51:06;;;;;;;5.53;2.30;;;;;;;8.13;100.00;101205.63;5137008;27;20034;-37
2022/12/25 07:53:32;;;;;;;6.10;2.33;;;;;;;8.13;100.00;101208.31;5137085;27;20068;-37
2022/12/25 07:55:58;;;;;;;6.13;2.60;;;;;;;8.13;100.00;101219.09;5136367;27;20531;-37
2022/12/25 07:58:24;;;;;;;6.68;2.55;;;;;;;8.13;100.00;101235.25;5136960;27;20031;-37
2022/12/25 08:00:49;;;;;;;7.32;2.30;;;;;;;8.18;100.00;101246.25;5136260;27;20556;-37
2022/12/25 08:03:15;;;;;;;3.80;1.97;;;;;;;8.20;100.00;101260.38;5136171;27;20035;-37
2022/12/25 08:05:40;;;;;;;4.88;2.47;;;;;;;8.26;100.00;101273.00;5136000;27;20030;-37
2022/12/25 08:08:06;;;;;;;6.23;3.70;;;;;;;8.15;100.00;101243.94;5136877;27;20035;-37
2022/12/25 08:10:31;;;;;;;9.47;5.83;;;;;;;8.21;100.00;101259.31;5136243;27;20023;-37
2022/12/25 08:12:56;;;;;;;7.93;5.53;;;;;;;8.27;100.00;101255.78;5135891;27;20098;-37
2022/12/25 08:15:22;;;;;;;8.27;5.83;;;;;;;8.24;100.00;101258.88;5136147;27;20023;-37
2022/12/25 08:17:47;;;;;;;8.33;3.80;;;;;;;8.17;100.00;101237.34;5136389;27;20039;-37
2022/12/25 08:20:12;;;;;;;7.87;4.50;;;;;;;8.15;100.00;101265.50;5134473;27;20038;-37
2022/12/25 08:22:38;;;;;;;4.30;2.97;;;;;;;8.29;100.00;101288.75;5136550;27;20022;-38
2022/12/25 08:25:03;;;;;;;6.93;4.57;;;;;;;8.20;100.00;101274.66;5135630;27;20027;-37
2022/12/25 08:27:29;;;;;;;5.82;4.38;;;;;;;8.27;100.00;101275.47;5136360;27;20024;-37
2022/12/25 08:29:54;;;;;;;9.17;4.17;;;;;;;8.17;100.00;101255.38;5136279;27;20027;-37
2022/12/25 08:32:19;;;;;;;7.37;4.30;;;;;;;8.24;100.00;101257.03;5135749;27;20023;-37
2022/12/25 08:34:45;;;;;;;6.57;3.60;;;;;;;8.23;100.00;101266.16;5135984;27;20058;-37
2022/12/25 08:37:10;;;;;;;4.67;3.00;;;;;;;8.22;100.00;101271.75;5135392;27;20075;-37
2022/12/25 08:39:35;;;;;;;8.23;3.10;;;;;;;8.22;100.00;101264.50;5135454;27;20368;-37
2022/12/25 08:42:01;;;;;;;6.47;3.03;;;;;;;8.21;100.00;101268.22;5135346;27;20023;-37
2022/12/25 08:44:26;;;;;;;6.77;3.00;;;;;;;8.21;100.00;101272.78;5135977;27;20115;-37
2022/12/25 08:46:52;;;;;;;7.40;2.60;;;;;;;8.26;100.00;101279.22;5135578;27;20102;-37
2022/12/25 08:49:18;;;;;;;6.28;3.45;;;;;;;8.14;100.00;101259.28;5133833;27;20035;-37
2022/12/25 08:51:43;;;;;;;8.80;3.25;;;;;;;8.22;100.00;101277.13;5135440;27;20031;-37
2022/12/25 08:54:09;;;;;;;5.47;3.20;;;;;;;8.22;100.00;101277.13;5135347;27;20098;-37
2022/12/25 08:56:35;;;;;;;7.07;3.07;;;;;;;8.22;100.00;101269.88;5135841;27;20103;-37
2022/12/25 08:59:00;;;;;;;;;;;;;;;8.27;100.00;101258.50;5135304;27;20023;-37
2022/12/25 09:01:26;;;;;;;7.03;4.00;;;;;;;8.22;100.00;101244.81;5134844;27;20282;-37
2022/12/25 09:03:51;;;;;;;5.90;3.60;;;;;;;8.19;100.00;101264.91;5134974;27;20076;-37
2022/12/25 09:06:17;;;;;;;7.13;3.67;;;;;;;8.16;100.00;101248.34;5134847;27;20042;-38
2022/12/25 09:08:43;;;;;;;6.20;3.20;;;;;;;8.21;100.00;101251.25;5135198;27;20027;-38
2022/12/25 09:11:11;;;;;;;6.57;3.60;;;;;;;8.12;100.00;101247.06;5135275;27;20042;-38
2022/12/25 09:13:37;;;;;;;5.45;3.17;;;;;;;8.17;100.00;101252.69;5135014;27;20042;-38
2022/12/25 09:16:11;;;;;;;8.50;3.30;;;;;;;8.18;100.00;101254.34;5135039;27;20026;-38
2022/12/25 09:18:37;;;;;;;5.93;3.03;;;;;;;8.20;100.00;101249.59;5134874;27;20265;-37
2022/12/25 09:21:05;;;;;;;6.10;3.50;;;;;;;8.14;100.00;101253.06;5134540;27;20081;-38
2022/12/25 09:23:31;;;;;;;8.32;3.60;;;;;;;8.17;100.00;101264.28;5135162;27;20027;-38
2022/12/25 09:26:04;;;;;;;6.35;3.25;;;;;;;8.23;100.00;101276.91;5134564;27;20136;-38
2022/12/25 09:28:30;;;;;;;7.38;4.15;;;;;;;8.29;100.00;101274.44;5135041;27;20057;-38
2022/12/25 09:30:56;;;;;;;;;;;;;;;8.33;100.00;101268.44;5135118;27;20034;-38
2022/12/25 09:33:22;;;;;;;6.72;4.22;;;;;;;8.29;100.00;101256.41;5134938;27;19907;-38
2022/12/25 09:36:02;;;;;;;5.95;3.67;;;;;;;8.30;100.00;101258.09;5134702;27;20122;-38
2022/12/25 09:38:28;;;;;;;6.90;3.30;;;;;;;8.20;100.00;101266.56;5134867;27;20055;-38
2022/12/25 09:41:02;;;;;;;;;;;;;;;8.36;100.00;101268.06;5134913;27;20130;-38
2022/12/25 09:43:32;;;;;;;5.18;3.30;;;;;;;8.31;100.00;101243.56;5134913;27;19911;-38
2022/12/25 09:46:01;;;;;;;5.28;2.90;;;;;;;8.33;100.00;101235.28;5134595;27;20023;-38
2022/12/25 09:48:29;;;;;;;6.65;3.40;;;;;;;8.30;100.00;101236.53;5134131;27;20035;-38
2022/12/25 09:51:05;;;;;;;10.25;4.38;;;;;;;8.27;100.00;101231.53;5134217;27;20109;-38
2022/12/25 09:53:40;;;;;;;7.40;4.30;;;;;;;8.30;100.00;101238.41;5134517;27;20072;-38
2022/12/25 09:56:15;;;;;;;6.28;3.88;;;;;;;8.32;100.00;101231.75;5134141;27;20027;-38
2022/12/25 09:58:41;;;;;;;9.80;4.70;;;;;;;8.31;100.00;101213.13;5134000;27;20023;-38
2022/12/25 10:01:38;;;;;;;6.67;3.73;;;;;;;8.31;100.00;101219.31;5133830;27;20027;-38
2022/12/25 10:04:09;;;;;;;7.53;4.07;;;;;;;8.31;100.00;101219.31;5051345;28;20664;-38
2022/12/25 10:06:58;;;;;;;5.28;3.72;;;;;;;8.31;100.00;101216.63;5050417;28;20047;-38
2022/12/25 10:09:40;;;;;;;6.72;3.42;;;;;;;8.31;100.00;101205.84;5050584;28;20482;-38
2022/12/25 10:12:14;;;;;;;5.85;3.20;;;;;;;8.23;100.00;101198.78;5050908;28;20045;-38
2022/12/25 10:14:45;;;;;;;6.80;3.75;;;;;;;8.17;100.00;101169.16;5050927;28;20496;-38
2022/12/25 10:17:33;;;;;;;5.40;2.90;;;;;;;8.23;100.00;101185.31;5050532;28;20423;-37
2022/12/25 10:20:11;;;;;;;6.72;2.92;;;;;;;8.23;100.00;101190.72;5050894;28;20040;-38
2022/12/25 10:22:43;;;;;;;5.13;3.10;;;;;;;8.30;100.00;101198.81;5034618;28;20389;-38
2022/12/25 10:25:29;;;;;;;5.15;3.28;;;;;;;8.34;100.00;101194.63;5050421;28;20029;-38
2022/12/25 10:28:00;;;;;;;6.25;3.45;;;;;;;8.27;100.00;101189.25;5050293;28;20041;-38
2022/12/25 10:30:27;;;;;;;5.80;3.20;;;;;;;8.31;100.00;101189.69;5050424;28;20116;-38
2022/12/25 10:32:55;;;;;;;7.43;3.17;;;;;;;8.36;100.00;101197.16;5050314;28;20045;-38
2022/12/25 10:35:24;;;;;;;5.70;3.03;;;;;;;8.37;100.00;101198.84;5051062;28;20037;-38
2022/12/25 10:38:11;;;;;;;5.22;2.80;;;;;;;8.38;100.00;101197.78;5050134;28;20040;-38
2022/12/25 10:40:55;;;;;;;5.18;3.10;;;;;;;8.37;100.00;101206.91;5126183;28;20055;-38
2022/12/25 10:43:29;;;;;;;5.25;3.25;;;;;;;8.32;100.00;101196.72;5133629;28;20081;-38
2022/12/25 10:45:55;;;;;;;5.38;3.10;;;;;;;8.32;100.00;101196.72;5133977;27;20063;-38
2022/12/25 10:48:31;;;;;;;6.97;3.37;;;;;;;8.29;100.00;101194.44;5134451;27;20476;-38
2022/12/25 10:50:57;;;;;;;5.90;3.30;;;;;;;8.33;100.00;101197.56;5133536;27;20031;-38
2022/12/25 10:53:40;;;;;;;5.07;2.80;;;;;;;8.26;100.00;101174.13;5133852;28;20030;-38
2022/12/25 10:56:13;;;;;;;4.97;3.08;;;;;;;8.33;100.00;101167.91;5133288;27;20160;-38
2022/12/25 10:58:38;;;;;;;7.30;3.58;;;;;;;8.30;100.00;101147.63;5133862;27;20052;-38
2022/12/25 11:01:06;;;;;;;5.70;3.70;;;;;;;8.20;100.00;101134.56;5133525;27;20110;-38
2022/12/25 11:03:38;;;;;;;8.15;3.13;;;;;;;8.34;100.00;101137.22;5132286;28;20031;-38
2022/12/25 11:06:05;;;;;;;6.78;3.30;;;;;;;8.29;100.00;101129.78;5133361;27;20106;-38
2022/12/25 11:08:33;;;;;;;5.45;3.42;;;;;;;8.35;100.00;101145.13;5133925;27;20027;-38
2022/12/25 11:11:07;;;;;;;6.18;3.67;;;;;;;8.33;100.00;101141.78;5133146;27;20466;-38
2022/12/25 11:13:39;;;;;;;7.10;3.33;;;;;;;8.33;100.00;101140.97;5133739;27;20111;-38
2022/12/25 11:16:12;;;;;;;6.65;3.35;;;;;;;8.24;100.00;101124.19;5133929;27;20031;-38
2022/12/25 11:18:50;;;;;;;7.45;3.42;;;;;;;8.33;100.00;101132.88;5133556;27;20383;-38
2022/12/25 11:21:22;;;;;;;6.13;3.58;;;;;;;8.29;100.00;101119.00;5133960;27;20083;-38
2022/12/25 11:23:54;;;;;;;6.95;4.40;;;;;;;8.30;100.00;101117.97;5137244;27;20046;-38
2022/12/25 11:26:20;;;;;;;8.73;5.97;;;;;;;8.29;100.00;101104.69;5137308;27;20050;-38
2022/12/25 11:28:49;;;;;;;5.38;4.03;;;;;;;8.31;100.00;101111.53;5137022;27;20027;-38
2022/12/25 11:31:19;;;;;;;7.13;5.70;;;;;;;8.28;100.00;101093.09;5136529;27;20042;-38
2022/12/25 11:33:53;;;;;;;8.20;4.53;;;;;;;8.33;100.00;101084.38;5137074;27;20451;-37
2022/12/25 11:36:33;;;;;;;7.93;4.22;;;;;;;8.34;100.00;101077.94;5136725;27;20046;-37
2022/12/25 11:39:08;;;;;;;6.95;4.60;;;;;;;8.33;100.00;101073.59;5136583;27;20531;-37
2022/12/25 11:41:36;;;;;;;5.55;4.32;;;;;;;8.33;100.00;101079.00;5137274;27;20051;-37
2022/12/25 11:44:10;;;;;;;5.25;3.90;;;;;;;8.26;100.00;101062.84;5136882;27;20031;-37
2022/12/25 11:46:44;;;;;;;7.05;4.05;;;;;;;8.27;100.00;101057.25;5136309;27;20029;-37
2022/12/25 11:49:18;;;;;;;6.38;4.18;;;;;;;8.33;100.00;101077.13;5137281;27;20023;-37
2022/12/25 11:51:48;;;;;;;5.68;4.32;;;;;;;8.30;100.00;101077.56;5136187;27;20055;-37
2022/12/25 11:54:26;;;;;;;6.80;4.05;;;;;;;8.30;100.00;101080.25;5136393;27;20095;-37
2022/12/25 11:56:53;;;;;;;7.55;4.30;;;;;;;8.23;100.00;101060.56;5136881;27;20412;-37
2022/12/25 11:59:29;;;;;;;7.95;4.60;;;;;;;8.27;100.00;101056.41;5136525;27;20039;-38
2022/12/25 12:02:23;;;;;;;8.23;4.60;;;;;;;8.31;100.00;101060.34;5136005;27;20118;-36
2022/12/25 12:05:01;;;;;;;5.80;4.00;;;;;;;8.30;100.00;101053.31;5136700;27;20019;-37
2022/12/25 12:07:29;;;;;;;5.80;3.75;;;;;;;8.32;100.00;101051.22;5136116;27;20020;-37
2022/12/25 12:10:13;;;;;;;8.68;4.68;;;;;;;8.35;100.00;101048.13;5136188;27;20165;-37
2022/12/25 12:12:59;;;;;;;5.78;4.93;;;;;;;8.37;100.00;101056.00;5136577;27;20023;-37
2022/12/25 12:15:50;;;;;;;8.43;5.63;;;;;;;8.37;100.00;101048.75;5136781;27;20023;-37
2022/12/25 12:18:22;;;;;;;8.95;6.82;;;;;;;8.38;100.00;101049.56;5131812;27;20035;-37
2022/12/25 12:21:23;;;;;;;12.30;6.53;;;;;;;8.40;100.00;101056.44;5136189;27;20035;-37
2022/12/25 12:24:14;;;;;;;7.10;6.22;;;;;;;8.42;100.00;101062.41;5135118;27;20067;-37
2022/12/25 12:26:43;;;;;;;7.22;5.38;;;;;;;8.38;100.00;101047.72;5124502;27;20039;-37
2022/12/25 12:29:30;;;;;;;10.68;5.97;;;;;;;8.43;100.00;101050.59;5135958;27;20374;-37
2022/12/25 12:32:03;;;;;;;9.40;6.47;;;;;;;8.45;100.00;101053.09;5135680;27;20035;-37
2022/12/25 12:34:29;;;;;;;10.50;8.25;;;;;;;8.43;100.00;101047.91;5134625;27;20030;-37
2022/12/25 12:37:04;;;;;;;10.27;6.70;;;;;;;8.42;100.00;101024.69;5135416;27;20119;-37
2022/12/25 12:39:38;;;;;;;8.07;7.10;;;;;;;8.44;100.00;101016.38;5135546;27;20023;-37
2022/12/25 12:42:19;;;;;;;8.57;6.63;;;;;;;8.45;100.00;101013.50;5135468;27;20752;-37
2022/12/25 12:44:46;;;;;;;10.68;6.55;;;;;;;8.42;100.00;101011.22;5136120;27;20054;-37
2022/12/25 12:47:35;;;;;;;7.05;6.40;;;;;;;8.45;100.00;101013.50;5135142;27;20096;-37
2022/12/25 12:50:01;;;;;;;7.93;6.70;;;;;;;8.44;100.00;101003.75;5135536;27;20160;-37
2022/12/25 12:52:35;;;;;;;7.33;6.20;;;;;;;8.45;100.00;100996.50;5135103;27;20110;-37
2022/12/25 12:55:05;;;;;;;7.03;6.32;;;;;;;8.46;100.00;101004.38;5135728;27;20031;-37
2022/12/25 12:57:38;;;;;;;8.13;6.80;;;;;;;8.39;100.00;100987.38;5135072;27;20027;-38
2022/12/25 13:00:05;;;;;;;8.20;6.80;;;;;;;8.45;100.00;100997.31;5134720;27;20053;-37
2022/12/25 13:03:12;;;;;;;7.85;7.05;;;;;;;8.49;100.00;100998.56;5133962;27;20119;-37
2022/12/25 13:05:52;;;;;;;6.97;6.25;;;;;;;8.49;100.00;100992.31;5051885;28;20033;-37
2022/12/25 13:08:20;;;;;;;9.65;6.53;;;;;;;8.37;100.00;100969.78;5051669;28;20443;-37
2022/12/25 13:10:49;;;;;;;9.52;7.18;;;;;;;8.44;100.00;100978.66;5051360;28;20131;-37
2022/12/25 13:13:21;;;;;;;7.57;6.78;;;;;;;8.44;100.00;100973.28;5051682;28;20041;-37
2022/12/25 13:15:49;;;;;;;8.43;7.13;;;;;;;8.50;100.00;100992.13;5051726;28;20033;-37